Time;durP1;ratioP1;P1;durP2;ratioP2;P2;SDS_P1;SDS_P2;PMS_P1;PMS_P2;Temp;Humidity;BMP_temperature;BMP_pressure;BME280_temperature;BME280_humidity;BME280_pressure;Samples;Min_cycle;Max_cycle;Signal;HPM_P1;HPM_P2
2022/04/08 00:01:02;;;;;;;;;;;11.90;99.90;;;;;;5002698;28;19913;-94
2022/04/08 00:03:28;;;;;;;;;;;11.90;99.90;;;;;;5002819;28;19905;-92
2022/04/08 00:09:17;;;;;;;;;;;11.90;99.90;;;;;;5041543;28;19913;-93
2022/04/08 00:11:42;;;;;;;;;;;11.90;99.90;;;;;;5041364;28;20097;-93
2022/04/08 00:14:08;;;;;;;;;;;11.90;99.90;;;;;;5041320;28;19905;-93
2022/04/08 00:16:33;;;;;;;;;;;11.90;99.90;;;;;;5041467;28;19912;-93
2022/04/08 00:18:59;;;;;;;;;;;11.90;99.90;;;;;;5042361;28;19905;-92
2022/04/08 00:21:25;;;;;;;;;;;12.00;99.90;;;;;;5043430;28;19949;-93
2022/04/08 00:23:52;;;;;;;;;;;12.10;99.90;;;;;;5043246;28;19913;-95
2022/04/08 00:26:17;;;;;;;;;;;12.20;99.90;;;;;;5041377;28;19909;-93
2022/04/08 00:29:09;;;;;;;;;;;12.30;99.90;;;;;;5041929;28;19910;-95
2022/04/08 00:31:44;;;;;;;;;;;12.40;99.90;;;;;;5060842;28;19905;-96
2022/04/08 00:39:17;;;;;;;;;;;12.50;99.90;;;;;;5020494;28;19921;-93
2022/04/08 01:00:24;;;;;;;;;;;12.50;99.90;;;;;;6069858;23;19916;-92
2022/04/08 01:02:49;;;;;;;;;;;12.60;99.90;;;;;;5001557;28;19976;-91
2022/04/08 01:05:15;;;;;;;;;;;12.60;99.90;;;;;;5002101;28;19905;-90
2022/04/08 01:07:40;;;;;;;;;;;12.60;99.90;;;;;;5002071;28;19912;-89
2022/04/08 01:10:06;;;;;;;;;;;12.60;99.90;;;;;;5002702;28;19906;-90
2022/04/08 01:12:32;;;;;;;;;;;12.60;99.90;;;;;;5002472;28;19912;-89
2022/04/08 01:14:58;;;;;;;;;;;12.60;99.90;;;;;;5001455;28;19910;-89
2022/04/08 01:17:24;;;;;;;;;;;12.60;99.90;;;;;;5002900;28;19913;-90
2022/04/08 01:19:50;;;;;;;;;;;12.60;99.90;;;;;;5002818;28;19906;-90
2022/04/08 01:22:17;;;;;;;;;;;12.60;99.90;;;;;;5001622;28;19914;-90
2022/04/08 01:24:46;;;;;;;;;;;12.60;99.90;;;;;;5001675;28;19977;-90
2022/04/08 01:27:12;;;;;;;;;;;12.60;99.90;;;;;;5001649;28;19913;-89
2022/04/08 01:29:37;;;;;;;;;;;12.60;99.90;;;;;;5002573;28;19910;-90
2022/04/08 01:32:03;;;;;;;;;;;12.60;99.90;;;;;;5001576;28;19912;-90
2022/04/08 01:34:28;;;;;;;;;;;12.60;99.90;;;;;;5000914;28;19960;-91
2022/04/08 01:36:54;;;;;;;;;;;12.60;99.90;;;;;;5002980;28;19906;-91
2022/04/08 01:39:20;;;;;;;;;;;12.60;99.90;;;;;;5002753;28;19906;-92
2022/04/08 01:41:45;;;;;;;;;;;12.60;99.90;;;;;;5002513;28;19913;-93
2022/04/08 01:44:11;;;;;;;;;;;12.60;99.90;;;;;;5002710;28;19916;-91
2022/04/08 01:46:36;;;;;;;;;;;12.60;99.90;;;;;;5002504;28;19944;-93
2022/04/08 01:49:02;;;;;;;;;;;12.60;99.90;;;;;;5003102;28;19906;-92
2022/04/08 01:51:27;;;;;;;;;;;12.60;99.90;;;;;;5006338;28;19918;-93
2022/04/08 01:53:53;;;;;;;;;;;12.60;99.90;;;;;;5007757;28;19949;-91
2022/04/08 01:56:18;;;;;;;;;;;12.70;99.90;;;;;;5005966;28;19917;-91
2022/04/08 01:58:48;;;;;;;;;;;12.70;99.90;;;;;;5006863;28;19996;-90
2022/04/08 02:01:14;;;;;;;;;;;12.60;99.90;;;;;;5007061;28;20198;-90
2022/04/08 02:03:39;;;;;;;;;;;12.70;99.90;;;;;;5005111;28;20190;-90
2022/04/08 02:06:05;;;;;;;;;;;12.70;99.90;;;;;;5005084;28;19906;-88
2022/04/08 02:08:31;;;;;;;;;;;12.60;99.90;;;;;;5005173;28;19909;-89
2022/04/08 02:10:56;;;;;;;;;;;12.60;99.90;;;;;;5006058;28;19906;-89
2022/04/08 02:13:22;;;;;;;;;;;12.60;99.90;;;;;;5004720;28;19911;-89
2022/04/08 02:15:48;;;;;;;;;;;12.70;99.90;;;;;;5004916;28;20190;-89
2022/04/08 02:18:14;;;;;;;;;;;12.70;99.90;;;;;;5006037;28;19996;-88
2022/04/08 02:20:40;;;;;;;;;;;12.70;99.90;;;;;;5005541;28;20164;-88
2022/04/08 02:23:06;;;;;;;;;;;12.60;99.90;;;;;;5004321;28;19977;-88
2022/04/08 02:25:31;;;;;;;;;;;12.70;99.90;;;;;;5004619;28;19956;-90
2022/04/08 02:27:57;;;;;;;;;;;12.60;99.90;;;;;;5005137;28;19945;-91
2022/04/08 02:30:23;;;;;;;;;;;12.60;99.90;;;;;;5004918;28;19906;-91
2022/04/08 02:32:49;;;;;;;;;;;12.60;99.90;;;;;;5005957;28;20117;-91
2022/04/08 02:35:14;;;;;;;;;;;12.60;99.90;;;;;;5006275;28;19913;-91
2022/04/08 02:37:40;;;;;;;;;;;12.60;99.90;;;;;;5009029;28;19910;-92
2022/04/08 02:40:06;;;;;;;;;;;12.60;99.90;;;;;;5005490;28;20288;-91
2022/04/08 02:42:32;;;;;;;;;;;12.60;99.90;;;;;;5007130;28;19918;-92
2022/04/08 02:44:58;;;;;;;;;;;12.60;99.90;;;;;;5004603;28;20241;-91
2022/04/08 02:47:24;;;;;;;;;;;12.60;99.90;;;;;;5005077;28;20079;-91
2022/04/08 02:49:49;;;;;;;;;;;12.60;99.90;;;;;;5005511;28;19913;-91
2022/04/08 02:52:15;;;;;;;;;;;12.60;99.90;;;;;;5005447;28;19912;-89
2022/04/08 02:54:40;;;;;;;;;;;12.60;99.90;;;;;;5007654;28;19917;-90
2022/04/08 02:57:06;;;;;;;;;;;12.60;99.90;;;;;;5004816;28;20104;-90
2022/04/08 02:59:31;;;;;;;;;;;12.60;99.90;;;;;;5004823;28;19976;-89
2022/04/08 03:01:57;;;;;;;;;;;12.60;99.90;;;;;;5003783;28;19924;-89
2022/04/08 03:04:23;;;;;;;;;;;12.60;99.90;;;;;;5005549;28;19905;-88
2022/04/08 03:06:48;;;;;;;;;;;12.60;99.90;;;;;;5003998;28;19910;-88
2022/04/08 03:09:14;;;;;;;;;;;12.60;99.90;;;;;;5004390;28;20105;-88
2022/04/08 03:11:39;;;;;;;;;;;12.60;99.90;;;;;;5003519;28;19980;-88
2022/04/08 03:14:05;;;;;;;;;;;12.60;99.90;;;;;;5003519;28;19913;-87
2022/04/08 03:16:31;;;;;;;;;;;12.60;99.90;;;;;;5003631;28;19906;-88
2022/04/08 03:18:57;;;;;;;;;;;12.60;99.90;;;;;;5004453;28;20085;-88
2022/04/08 03:21:22;;;;;;;;;;;12.60;99.90;;;;;;5004374;28;20106;-88
2022/04/08 03:23:48;;;;;;;;;;;12.60;99.90;;;;;;5004607;28;19909;-88
2022/04/08 03:26:14;;;;;;;;;;;12.60;99.90;;;;;;5004601;28;19905;-89
2022/04/08 03:28:39;;;;;;;;;;;12.60;99.90;;;;;;5004795;28;19977;-88
2022/04/08 03:31:05;;;;;;;;;;;12.60;99.90;;;;;;5003466;28;19981;-88
2022/04/08 03:33:30;;;;;;;;;;;12.60;99.90;;;;;;5003408;28;20189;-87
2022/04/08 03:35:56;;;;;;;;;;;12.60;99.90;;;;;;5004546;28;20225;-87
2022/04/08 03:38:22;;;;;;;;;;;12.60;99.90;;;;;;5003664;28;19909;-87
2022/04/08 03:40:48;;;;;;;;;;;12.50;99.90;;;;;;5002670;28;20220;-87
2022/04/08 03:43:13;;;;;;;;;;;12.60;99.90;;;;;;5003418;28;19948;-87
2022/04/08 03:45:39;;;;;;;;;;;12.60;99.90;;;;;;5003987;28;20098;-86
2022/04/08 03:48:06;;;;;;;;;;;12.60;99.90;;;;;;5004351;28;19906;-87
2022/04/08 03:50:32;;;;;;;;;;;12.50;99.90;;;;;;5004342;28;19906;-86
2022/04/08 03:52:58;;;;;;;;;;;12.50;99.90;;;;;;5004227;28;19943;-86
2022/04/08 03:55:23;;;;;;;;;;;12.60;99.90;;;;;;5004097;28;20340;-86
2022/04/08 03:57:49;;;;;;;;;;;12.50;99.90;;;;;;5002846;28;20186;-86
2022/04/08 04:00:15;;;;;;;;;;;12.60;99.90;;;;;;5004065;28;19944;-87
2022/04/08 04:02:40;;;;;;;;;;;12.60;99.90;;;;;;5002658;28;20121;-89
2022/04/08 04:05:06;;;;;;;;;;;12.60;99.90;;;;;;5002590;28;19906;-89
2022/04/08 04:07:32;;;;;;;;;;;12.60;99.90;;;;;;5004262;28;19917;-90
2022/04/08 04:09:59;;;;;;;;;;;12.50;99.90;;;;;;5004942;28;19945;-92
2022/04/08 04:13:00;;;;;;;;;;;12.50;99.90;;;;;;5004286;28;19949;-96
2022/04/08 04:15:25;;;;;;;;;;;12.50;99.90;;;;;;5003925;28;19910;-95
2022/04/08 04:21:08;;;;;;;;;;;12.40;99.90;;;;;;5104481;22;20011;-93
2022/04/08 04:31:20;;;;;;;;;;;12.30;99.90;;;;;;5037339;22;20150;-93
2022/04/08 04:33:46;;;;;;;;;;;12.30;99.90;;;;;;5004499;28;19959;-94
2022/04/08 04:36:29;;;;;;;;;;;12.30;99.90;;;;;;5007111;28;19937;-96
2022/04/08 05:23:28;;;;;;;;;;;12.10;99.90;;;;;;5725955;22;19937;-95
2022/04/08 05:25:54;;;;;;;;;;;12.10;99.90;;;;;;5001435;28;19906;-95
2022/04/08 05:28:55;;;;;;;;;;;12.10;99.90;;;;;;5002046;28;19914;-96
2022/04/08 05:31:21;;;;;;;;;;;12.10;99.90;;;;;;5021702;28;19905;-95
2022/04/08 05:33:49;;;;;;;;;;;12.20;99.90;;;;;;5005954;28;19940;-93
2022/04/08 05:36:14;;;;;;;;;;;12.10;99.90;;;;;;5001413;28;19913;-92
2022/04/08 05:38:40;;;;;;;;;;;12.10;99.90;;;;;;5003266;28;19906;-94
2022/04/08 05:41:17;;;;;;;;;;;12.10;99.90;;;;;;4996699;28;19928;-94
2022/04/08 05:43:44;;;;;;;;;;;12.20;99.90;;;;;;4992076;28;19984;-93
2022/04/08 05:46:13;;;;;;;;;;;12.20;99.90;;;;;;4992452;28;20371;-92
2022/04/08 05:48:38;;;;;;;;;;;12.20;99.90;;;;;;4990394;28;19917;-91
2022/04/08 05:51:04;;;;;;;;;;;12.20;99.90;;;;;;4989537;28;19910;-91
2022/04/08 05:53:30;;;;;;;;;;;12.30;99.90;;;;;;4991160;28;20404;-91
2022/04/08 05:55:56;;;;;;;;;;;12.30;99.90;;;;;;4990826;28;20290;-92
2022/04/08 05:58:21;;;;;;;;;;;12.40;99.90;;;;;;4990242;28;19910;-90
2022/04/08 06:00:47;;;;;;;;;;;12.40;99.90;;;;;;4996287;28;19929;-91
2022/04/08 06:03:12;;;;;;;;;;;12.40;99.90;;;;;;4996995;28;19920;-91
2022/04/08 06:05:38;;;;;;;;;;;12.40;99.90;;;;;;4994703;28;20236;-91
2022/04/08 06:08:04;;;;;;;;;;;12.50;99.90;;;;;;4991266;28;19910;-91
2022/04/08 06:10:29;;;;;;;;;;;12.50;99.90;;;;;;4994049;28;19906;-92
2022/04/08 06:12:55;;;;;;;;;;;12.50;99.90;;;;;;4998941;28;20367;-90
2022/04/08 06:15:21;;;;;;;;;;;12.50;99.90;;;;;;4994764;28;19921;-91
2022/04/08 06:17:46;;;;;;;;;;;12.60;99.90;;;;;;4991565;28;19941;-91
2022/04/08 06:20:16;;;;;;;;;;;12.60;99.90;;;;;;4995635;28;20452;-91
2022/04/08 06:22:42;;;;;;;;;;;12.60;99.90;;;;;;4995621;28;19997;-91
2022/04/08 06:25:08;;;;;;;;;;;12.60;99.90;;;;;;4993284;28;19950;-91
2022/04/08 06:27:34;;;;;;;;;;;12.70;99.90;;;;;;4993709;28;19905;-91
2022/04/08 06:29:59;;;;;;;;;;;12.70;99.90;;;;;;4989834;28;19910;-92
2022/04/08 06:32:25;;;;;;;;;;;12.80;99.90;;;;;;4998187;28;19913;-91
2022/04/08 06:34:51;;;;;;;;;;;12.80;99.90;;;;;;4993335;28;20258;-90
2022/04/08 06:37:16;;;;;;;;;;;12.90;99.90;;;;;;4992955;28;19976;-92
2022/04/08 06:39:42;;;;;;;;;;;12.90;99.90;;;;;;4994749;28;20326;-92
2022/04/08 06:42:08;;;;;;;;;;;12.90;99.90;;;;;;4995672;28;19917;-91
2022/04/08 06:44:33;;;;;;;;;;;13.00;99.90;;;;;;4996326;28;19916;-91
2022/04/08 06:46:59;;;;;;;;;;;13.00;99.90;;;;;;4996620;28;19918;-92
2022/04/08 06:49:25;;;;;;;;;;;13.00;99.90;;;;;;4993836;28;19961;-92
2022/04/08 06:51:53;;;;;;;;;;;13.00;99.90;;;;;;4993062;28;19910;-91
2022/04/08 06:54:18;;;;;;;;;;;13.00;99.90;;;;;;4982801;28;19921;-91
2022/04/08 06:56:44;;;;;;;;;;;13.00;99.90;;;;;;4979809;28;19894;-91
2022/04/08 06:59:09;;;;;;;;;;;13.00;99.90;;;;;;5006877;28;19914;-92
2022/04/08 07:01:35;;;;;;;;;;;13.10;99.90;;;;;;5004343;28;19918;-92
2022/04/08 07:04:04;;;;;;;;;;;13.10;99.90;;;;;;4994728;28;19916;-93
2022/04/08 07:08:55;;;;;;;;;;;12.70;99.90;;;;;;5111563;23;19926;-92
2022/04/08 07:11:20;;;;;;;;;;;12.40;99.90;;;;;;5000704;28;19910;-92
2022/04/08 07:13:47;;;;;;;;;;;12.00;99.90;;;;;;4999498;28;19964;-94
2022/04/08 07:16:24;;;;;;;;;;;11.80;99.90;;;;;;4983094;28;19964;-96
2022/04/08 07:20:16;;;;;;;;;;;;;;;;;;;;;
2022/04/08 07:22:15;;;;;;;;;;;11.70;99.90;;;;;;4977203;28;20118;-95
2022/04/08 07:25:07;;;;;;;;;;;11.70;99.90;;;;;;4980480;28;20029;-96
2022/04/08 07:27:44;;;;;;;;;;;11.70;99.90;;;;;;4986218;28;20024;-96
2022/04/08 07:30:11;;;;;;;;;;;11.80;99.90;;;;;;4996061;28;19910;-94
2022/04/08 07:32:37;;;;;;;;;;;11.80;99.90;;;;;;5004092;28;19913;-94
2022/04/08 07:35:03;;;;;;;;;;;11.90;99.90;;;;;;5003437;28;19909;-94
2022/04/08 07:37:29;;;;;;;;;;;12.00;99.90;;;;;;4995124;28;19941;-95
2022/04/08 07:39:55;;;;;;;;;;;12.00;99.90;;;;;;4996467;28;19917;-94
2022/04/08 07:42:20;;;;;;;;;;;12.10;99.90;;;;;;4992910;28;19921;-93
2022/04/08 07:44:46;;;;;;;;;;;12.10;99.90;;;;;;4992512;28;19910;-95
2022/04/08 07:47:11;;;;;;;;;;;12.20;99.90;;;;;;4993797;28;19916;-93
2022/04/08 07:49:37;;;;;;;;;;;12.20;99.90;;;;;;4996387;28;19922;-92
2022/04/08 07:52:03;;;;;;;;;;;12.20;99.90;;;;;;5001480;28;19897;-90
2022/04/08 07:54:31;;;;;;;;;;;12.30;99.90;;;;;;5002974;28;19894;-93
2022/04/08 07:56:57;;;;;;;;;;;12.30;99.90;;;;;;4995289;28;20388;-93
2022/04/08 07:59:22;;;;;;;;;;;12.30;99.90;;;;;;4989281;28;19914;-92
2022/04/08 08:01:48;;;;;;;;;;;12.40;99.90;;;;;;4996308;28;19945;-92
2022/04/08 08:04:14;;;;;;;;;;;12.40;99.90;;;;;;4994584;28;19950;-93
2022/04/08 08:06:40;;;;;;;;;;;12.40;99.90;;;;;;4999040;28;19922;-92
2022/04/08 08:09:05;;;;;;;;;;;12.40;99.90;;;;;;4985481;28;20314;-93
2022/04/08 08:11:31;;;;;;;;;;;12.50;99.90;;;;;;4981774;28;20000;-93
2022/04/08 08:13:58;;;;;;;;;;;12.60;99.90;;;;;;4996727;28;19918;-92
2022/04/08 08:16:26;;;;;;;;;;;12.70;99.90;;;;;;4984822;28;19914;-93
2022/04/08 08:18:56;;;;;;;;;;;12.70;99.90;;;;;;4978562;28;19918;-92
2022/04/08 08:21:22;;;;;;;;;;;12.90;99.90;;;;;;4987377;28;19918;-94
2022/04/08 08:23:48;;;;;;;;;;;12.90;99.90;;;;;;4959612;28;19910;-92
2022/04/08 08:26:13;;;;;;;;;;;13.00;99.90;;;;;;4958098;28;19921;-90
2022/04/08 08:28:39;;;;;;;;;;;13.10;99.90;;;;;;4956989;28;19910;-90
2022/04/08 08:31:05;;;;;;;;;;;13.10;99.90;;;;;;4959421;28;19910;-91
2022/04/08 08:33:30;;;;;;;;;;;13.10;99.90;;;;;;4955670;28;19911;-90
2022/04/08 08:35:56;;;;;;;;;;;13.10;99.90;;;;;;4961699;28;20008;-95
2022/04/08 08:38:22;;;;;;;;;;;13.10;99.90;;;;;;4961494;28;20178;-91
2022/04/08 08:40:48;;;;;;;;;;;13.10;99.90;;;;;;4963763;28;20727;-91
2022/04/08 08:43:20;;;;;;;;;;;13.10;99.90;;;;;;4975908;28;19965;-89
2022/04/08 08:45:47;;;;;;;;;;;13.20;99.90;;;;;;4995372;28;19910;-93
2022/04/08 08:48:13;;;;;;;;;;;13.30;99.90;;;;;;4974270;28;19916;-90
2022/04/08 08:50:39;;;;;;;;;;;13.30;99.90;;;;;;4990610;28;19909;-90
2022/04/08 08:53:05;;;;;;;;;;;13.40;99.90;;;;;;4986514;28;19910;-89
2022/04/08 08:55:30;;;;;;;;;;;13.50;99.90;;;;;;4991157;28;19914;-89
2022/04/08 08:57:56;;;;;;;;;;;13.50;99.90;;;;;;4993559;28;19910;-94
2022/04/08 09:00:23;;;;;;;;;;;13.60;99.90;;;;;;4994655;28;20429;-89
2022/04/08 09:02:49;;;;;;;;;;;13.50;99.90;;;;;;4994031;28;19918;-89
2022/04/08 09:05:16;;;;;;;;;;;13.60;99.90;;;;;;4992723;28;19965;-89
2022/04/08 09:07:41;;;;;;;;;;;13.70;99.90;;;;;;4991673;28;19922;-88
2022/04/08 09:10:07;;;;;;;;;;;13.70;99.90;;;;;;4991495;28;19936;-93
2022/04/08 09:12:33;;;;;;;;;;;13.70;99.90;;;;;;4993741;28;20267;-89
2022/04/08 09:15:00;;;;;;;;;;;13.70;99.90;;;;;;4993700;28;19910;-89
2022/04/08 09:17:26;;;;;;;;;;;13.70;99.90;;;;;;4993707;28;19906;-89
2022/04/08 09:19:56;;;;;;;;;;;13.70;99.90;;;;;;4990569;28;19910;-88
2022/04/08 09:22:28;;;;;;;;;;;13.80;99.90;;;;;;4992766;28;19918;-88
2022/04/08 09:24:54;;;;;;;;;;;13.80;99.90;;;;;;4994216;28;19909;-88
2022/04/08 09:27:21;;;;;;;;;;;13.80;99.90;;;;;;4991802;28;20248;-88
2022/04/08 09:29:46;;;;;;;;;;;13.80;99.90;;;;;;4992157;28;19910;-88
2022/04/08 09:32:12;;;;;;;;;;;13.90;99.90;;;;;;4996984;28;19944;-90
2022/04/08 09:34:38;;;;;;;;;;;14.10;99.90;;;;;;4992740;28;19984;-90
2022/04/08 09:37:11;;;;;;;;;;;14.40;99.90;;;;;;4989497;28;20350;-89
2022/04/08 09:39:51;;;;;;;;;;;14.50;99.90;;;;;;4991972;28;19910;-93
2022/04/08 09:42:42;;;;;;;;;;;14.50;99.90;;;;;;4990312;28;19944;-92
2022/04/08 09:45:09;;;;;;;;;;;14.40;99.90;;;;;;4990818;28;19909;-93
2022/04/08 09:47:35;;;;;;;;;;;14.30;99.90;;;;;;4989893;28;19918;-93
2022/04/08 09:50:00;;;;;;;;;;;14.20;99.90;;;;;;4988174;28;19954;-93
2022/04/08 09:52:26;;;;;;;;;;;14.20;99.90;;;;;;4991226;28;20429;-92
2022/04/08 09:54:52;;;;;;;;;;;14.20;99.90;;;;;;4990254;28;20370;-90
2022/04/08 09:57:18;;;;;;;;;;;14.10;99.90;;;;;;4991361;28;20263;-91
2022/04/08 09:59:44;;;;;;;;;;;14.10;99.90;;;;;;4990145;28;20578;-91
2022/04/08 10:02:12;;;;;;;;;;;14.10;99.90;;;;;;4982463;28;19926;-89
2022/04/08 10:04:38;;;;;;;;;;;14.10;99.90;;;;;;4973654;28;19968;-89
2022/04/08 10:07:05;;;;;;;;;;;14.00;99.90;;;;;;4988791;28;20784;-89
2022/04/08 10:09:33;;;;;;;;;;;14.00;99.90;;;;;;4990667;28;20375;-89
2022/04/08 10:12:18;;;;;;;;;;;13.90;99.90;;;;;;4993573;28;19910;-88
2022/04/08 10:14:51;;;;;;;;;;;14.00;99.90;;;;;;4992918;28;19922;-89
2022/04/08 10:17:17;;;;;;;;;;;14.10;99.90;;;;;;4994029;28;19936;-89
2022/04/08 10:19:42;;;;;;;;;;;14.10;99.90;;;;;;4992915;28;20367;-90
2022/04/08 10:22:18;;;;;;;;;;;14.00;99.90;;;;;;4992880;28;19921;-89
2022/04/08 10:24:54;;;;;;;;;;;14.00;99.90;;;;;;4994154;28;19914;-88
2022/04/08 10:27:38;;;;;;;;;;;14.10;99.90;;;;;;4994551;28;19972;-89
2022/04/08 10:30:22;;;;;;;;;;;14.10;99.90;;;;;;4993896;28;19913;-91
2022/04/08 10:32:58;;;;;;;;;;;14.20;99.90;;;;;;4994036;28;19960;-89
2022/04/08 10:35:23;;;;;;;;;;;14.40;99.90;;;;;;4993653;28;19914;-90
2022/04/08 10:37:56;;;;;;;;;;;14.80;99.90;;;;;;4992581;28;19932;-93
2022/04/08 10:40:28;;;;;;;;;;;15.00;99.90;;;;;;4993991;28;19916;-89
2022/04/08 10:42:57;;;;;;;;;;;15.10;99.90;;;;;;4992766;28;20310;-89
2022/04/08 10:45:23;;;;;;;;;;;15.40;99.90;;;;;;4992589;28;20371;-89
2022/04/08 10:47:49;;;;;;;;;;;15.50;99.90;;;;;;4992698;28;19909;-90
2022/04/08 10:50:43;;;;;;;;;;;15.50;99.90;;;;;;4994464;28;19941;-89
2022/04/08 10:53:13;;;;;;;;;;;15.30;99.90;;;;;;4988963;28;20103;-89
2022/04/08 10:55:49;;;;;;;;;;;15.10;99.90;;;;;;4992194;28;20009;-90
2022/04/08 10:58:19;;;;;;;;;;;15.20;99.90;;;;;;4992377;28;19910;-89
2022/04/08 11:00:48;;;;;;;;;;;15.20;99.90;;;;;;4991839;28;19964;-90
2022/04/08 11:03:14;;;;;;;;;;;15.20;99.90;;;;;;4993509;28;19913;-89
2022/04/08 11:05:40;;;;;;;;;;;15.20;99.90;;;;;;4994097;28;19910;-89
2022/04/08 11:08:06;;;;;;;;;;;15.20;99.90;;;;;;4991877;28;19945;-89
2022/04/08 11:10:32;;;;;;;;;;;15.20;99.90;;;;;;4998001;28;19906;-90
2022/04/08 11:12:57;;;;;;;;;;;15.20;99.90;;;;;;4997461;28;19960;-89
2022/04/08 11:15:24;;;;;;;;;;;15.10;99.90;;;;;;4976987;28;19910;-89
2022/04/08 11:17:51;;;;;;;;;;;15.00;99.90;;;;;;4981509;28;19992;-92
2022/04/08 11:20:17;;;;;;;;;;;14.80;99.90;;;;;;4978500;28;19910;-89
2022/04/08 11:22:44;;;;;;;;;;;14.70;99.90;;;;;;4970162;28;19947;-89
2022/04/08 11:25:10;;;;;;;;;;;14.70;99.90;;;;;;4975361;28;19910;-89
2022/04/08 11:27:36;;;;;;;;;;;14.70;99.90;;;;;;4972735;28;20442;-90
2022/04/08 11:30:08;;;;;;;;;;;14.80;99.90;;;;;;4984492;28;20004;-89
2022/04/08 11:32:34;;;;;;;;;;;14.80;99.90;;;;;;4994126;28;19917;-91
2022/04/08 11:35:09;;;;;;;;;;;14.80;99.90;;;;;;4992972;28;19909;-89
2022/04/08 11:37:35;;;;;;;;;;;14.80;99.90;;;;;;4993425;28;19910;-89
2022/04/08 11:40:00;;;;;;;;;;;14.70;99.90;;;;;;4991740;28;20040;-94
2022/04/08 11:42:26;;;;;;;;;;;14.80;99.90;;;;;;4991670;28;19976;-89
2022/04/08 11:44:52;;;;;;;;;;;14.80;99.90;;;;;;4994188;28;20028;-89
2022/04/08 11:47:18;;;;;;;;;;;14.80;99.90;;;;;;4995036;28;19910;-90
2022/04/08 11:49:44;;;;;;;;;;;15.00;99.90;;;;;;4992938;28;19918;-89
2022/04/08 11:52:10;;;;;;;;;;;15.00;99.90;;;;;;4992933;28;19956;-90
2022/04/08 11:54:39;;;;;;;;;;;15.00;99.90;;;;;;4992668;28;19917;-89
2022/04/08 11:57:06;;;;;;;;;;;15.00;99.90;;;;;;4993356;28;20341;-90
2022/04/08 11:59:32;;;;;;;;;;;15.00;99.90;;;;;;4992653;28;19929;-89
2022/04/08 12:01:59;;;;;;;;;;;14.80;99.90;;;;;;4992435;28;19918;-88
2022/04/08 12:04:24;;;;;;;;;;;14.50;99.90;;;;;;4992039;28;19949;-91
2022/04/08 12:06:50;;;;;;;;;;;14.40;99.90;;;;;;4991483;28;19917;-92
2022/04/08 12:09:16;;;;;;;;;;;14.50;99.90;;;;;;4991870;28;19953;-92
2022/04/08 12:11:43;;;;;;;;;;;14.60;99.90;;;;;;4991484;28;19914;-92
2022/04/08 12:14:09;;;;;;;;;;;14.60;99.90;;;;;;4992007;28;19955;-91
2022/04/08 12:16:39;;;;;;;;;;;14.50;99.90;;;;;;4992606;28;19944;-88
2022/04/08 12:19:05;;;;;;;;;;;14.30;99.90;;;;;;4991514;28;19918;-87
2022/04/08 12:21:31;;;;;;;;;;;14.30;99.90;;;;;;4992695;28;19918;-87
2022/04/08 12:23:58;;;;;;;;;;;14.40;99.90;;;;;;4991796;28;19931;-88
2022/04/08 12:26:31;;;;;;;;;;;14.20;99.90;;;;;;4990407;28;19914;-87
2022/04/08 12:29:07;;;;;;;;;;;14.10;99.90;;;;;;4992549;28;19950;-87
2022/04/08 12:31:33;;;;;;;;;;;14.00;99.90;;;;;;4994833;28;19910;-87
2022/04/08 12:34:01;;;;;;;;;;;14.10;99.90;;;;;;4990696;28;19909;-88
2022/04/08 12:36:27;;;;;;;;;;;14.10;99.90;;;;;;4993985;28;19916;-88
2022/04/08 12:38:52;;;;;;;;;;;14.10;99.90;;;;;;4993073;28;19910;-88
2022/04/08 12:41:18;;;;;;;;;;;14.30;99.90;;;;;;4994901;28;20008;-87
2022/04/08 12:43:43;;;;;;;;;;;14.30;99.90;;;;;;4993243;28;19957;-87
2022/04/08 12:46:09;;;;;;;;;;;14.30;99.90;;;;;;4991516;28;19910;-88
2022/04/08 12:48:35;;;;;;;;;;;14.20;99.90;;;;;;4991909;28;20039;-89
2022/04/08 12:51:00;;;;;;;;;;;14.00;99.90;;;;;;4992743;28;19948;-88
2022/04/08 12:53:29;;;;;;;;;;;14.00;99.90;;;;;;4993579;28;20338;-88
2022/04/08 12:55:57;;;;;;;;;;;14.00;99.90;;;;;;4992974;28;19910;-88
2022/04/08 12:58:24;;;;;;;;;;;14.10;99.90;;;;;;4991491;28;20397;-87
2022/04/08 13:00:50;;;;;;;;;;;14.30;99.90;;;;;;4990810;28;20000;-88
2022/04/08 13:03:18;;;;;;;;;;;14.40;99.90;;;;;;4990345;28;20376;-87
2022/04/08 13:05:44;;;;;;;;;;;14.20;99.90;;;;;;4991027;28;19914;-87
2022/04/08 13:08:09;;;;;;;;;;;14.10;99.90;;;;;;4990803;28;19922;-89
2022/04/08 13:10:36;;;;;;;;;;;13.90;99.90;;;;;;4991857;28;20012;-87
2022/04/08 13:13:01;;;;;;;;;;;13.50;99.90;;;;;;4990923;28;20302;-88
2022/04/08 13:15:27;;;;;;;;;;;13.10;99.90;;;;;;4992413;28;19916;-87
2022/04/08 13:17:52;;;;;;;;;;;13.00;99.90;;;;;;4992792;28;20368;-88
2022/04/08 13:20:18;;;;;;;;;;;13.10;99.90;;;;;;4989845;28;19910;-91
2022/04/08 13:22:44;;;;;;;;;;;13.30;99.90;;;;;;4989673;28;19968;-89
2022/04/08 13:25:09;;;;;;;;;;;13.50;99.90;;;;;;4991190;28;19932;-89
2022/04/08 13:27:35;;;;;;;;;;;13.80;99.90;;;;;;4990980;28;19917;-88
2022/04/08 13:30:00;;;;;;;;;;;14.00;99.90;;;;;;4991085;28;19964;-88
2022/04/08 13:32:26;;;;;;;;;;;13.90;99.90;;;;;;5006564;28;19917;-88
2022/04/08 13:34:51;;;;;;;;;;;13.90;99.90;;;;;;4990777;28;19910;-89
2022/04/08 13:37:18;;;;;;;;;;;13.90;99.90;;;;;;4989876;28;19949;-88
2022/04/08 13:39:43;;;;;;;;;;;13.80;99.90;;;;;;4997920;28;19914;-87
2022/04/08 13:42:09;;;;;;;;;;;13.80;99.90;;;;;;4993292;28;19968;-87
2022/04/08 13:44:35;;;;;;;;;;;13.90;99.90;;;;;;4990042;28;19910;-89
2022/04/08 13:47:01;;;;;;;;;;;14.10;99.90;;;;;;4994078;28;19914;-89
2022/04/08 13:49:26;;;;;;;;;;;14.00;99.90;;;;;;4993797;28;20394;-87
2022/04/08 13:51:52;;;;;;;;;;;13.80;99.90;;;;;;4998798;28;19913;-87
2022/04/08 13:54:17;;;;;;;;;;;13.50;99.90;;;;;;4999671;28;19906;-88
2022/04/08 13:56:43;;;;;;;;;;;13.50;99.90;;;;;;4994597;28;20386;-88
2022/04/08 13:59:09;;;;;;;;;;;13.30;99.90;;;;;;4994818;28;20017;-89
2022/04/08 14:01:34;;;;;;;;;;;13.30;99.90;;;;;;4994216;28;19965;-87
2022/04/08 14:04:00;;;;;;;;;;;13.10;99.90;;;;;;4994454;28;19913;-87
2022/04/08 14:06:26;;;;;;;;;;;13.10;99.90;;;;;;4993238;28;19961;-88
2022/04/08 14:08:52;;;;;;;;;;;13.00;99.90;;;;;;4996689;28;19922;-88
2022/04/08 14:11:17;;;;;;;;;;;12.90;99.90;;;;;;4993031;28;20008;-87
2022/04/08 14:13:43;;;;;;;;;;;12.90;99.90;;;;;;4997695;28;19910;-86
2022/04/08 14:16:09;;;;;;;;;;;12.80;99.90;;;;;;4998056;28;19906;-87
2022/04/08 14:18:34;;;;;;;;;;;12.60;99.90;;;;;;4994231;28;20000;-88
2022/04/08 14:21:00;;;;;;;;;;;12.50;99.90;;;;;;4997620;28;19918;-90
2022/04/08 14:23:26;;;;;;;;;;;12.40;99.90;;;;;;4994393;28;19914;-88
2022/04/08 14:25:52;;;;;;;;;;;12.30;99.90;;;;;;4993961;28;19920;-89
2022/04/08 14:28:18;;;;;;;;;;;12.30;99.90;;;;;;4994023;28;20337;-88
2022/04/08 14:30:44;;;;;;;;;;;12.30;99.90;;;;;;4994121;28;19960;-88
2022/04/08 14:33:09;;;;;;;;;;;12.30;99.90;;;;;;4993930;28;19910;-88
2022/04/08 14:35:35;;;;;;;;;;;12.30;99.90;;;;;;4992485;28;19910;-88
2022/04/08 14:38:01;;;;;;;;;;;12.40;99.90;;;;;;4984399;28;19910;-88
2022/04/08 14:40:26;;;;;;;;;;;12.40;99.90;;;;;;4975045;28;20005;-88
2022/04/08 14:42:52;;;;;;;;;;;12.40;99.90;;;;;;4978550;28;19918;-88
2022/04/08 14:45:18;;;;;;;;;;;12.40;99.90;;;;;;4979757;28;19934;-88
2022/04/08 14:47:44;;;;;;;;;;;12.40;99.90;;;;;;4977659;28;19906;-88
2022/04/08 14:50:09;;;;;;;;;;;12.50;99.90;;;;;;4980345;28;20049;-88
2022/04/08 14:52:35;;;;;;;;;;;12.60;99.90;;;;;;4983037;28;19909;-88
2022/04/08 14:55:01;;;;;;;;;;;12.80;99.90;;;;;;4978860;28;19910;-88
2022/04/08 14:57:26;;;;;;;;;;;12.90;99.90;;;;;;4975808;28;19907;-87
2022/04/08 14:59:52;;;;;;;;;;;13.00;99.90;;;;;;4974457;28;19917;-87
2022/04/08 15:02:17;;;;;;;;;;;12.90;99.90;;;;;;4974488;28;20379;-87
2022/04/08 15:04:43;;;;;;;;;;;12.90;99.90;;;;;;4975201;28;20480;-90
2022/04/08 15:07:08;;;;;;;;;;;12.90;99.90;;;;;;4982802;28;19941;-89
2022/04/08 15:09:34;;;;;;;;;;;12.90;99.90;;;;;;4973885;28;19922;-88
2022/04/08 15:12:00;;;;;;;;;;;12.90;99.90;;;;;;4975325;28;20394;-88
2022/04/08 15:14:26;;;;;;;;;;;12.80;99.90;;;;;;4973908;28;20381;-88
2022/04/08 15:16:51;;;;;;;;;;;12.90;99.90;;;;;;4975967;28;19910;-87
2022/04/08 15:19:17;;;;;;;;;;;13.00;99.90;;;;;;4973638;28;19911;-87
2022/04/08 15:21:42;;;;;;;;;;;13.20;99.90;;;;;;4974903;28;19911;-87
2022/04/08 15:24:08;;;;;;;;;;;13.30;99.90;;;;;;4976494;28;19913;-87
2022/04/08 15:26:33;;;;;;;;;;;13.40;99.90;;;;;;4977524;28;19941;-87
2022/04/08 15:28:59;;;;;;;;;;;13.50;99.90;;;;;;4976910;28;19914;-87
2022/04/08 15:31:26;;;;;;;;;;;13.40;99.90;;;;;;4976022;28;19910;-88
2022/04/08 15:33:57;;;;;;;;;;;13.50;99.90;;;;;;4976028;28;20001;-87
2022/04/08 15:36:23;;;;;;;;;;;13.60;99.90;;;;;;4975640;28;19936;-87
2022/04/08 15:38:48;;;;;;;;;;;13.60;99.90;;;;;;4974957;28;19910;-88
2022/04/08 15:41:14;;;;;;;;;;;13.50;99.90;;;;;;4972175;28;20267;-87
2022/04/08 15:43:39;;;;;;;;;;;13.40;99.90;;;;;;4972672;28;19910;-87